Archival Weather

Half Moon Bay

Half Moon Bay, California (KHAF)

Report from: Thursday, September 21, 2023 10:15 PM PDT
Current time: Saturday, July 13, 2024 7:16 PM PDT

Current weather – Weather history – Daily summaries
Weather forecast

Present weatherMist
Temperature15.0°C (59.0°F)
Dew point14.0°C (57.2°F)
Winds 5 kts (2.6 m/s, 5.8 mph) South-Southeast (150°)
Visibility4 mi. (6.4 km)
Clouds Ceiling: Broken clouds 1,800 ft. (549 m)
Altimeter29.95 in.Hg (1014 mB)
Relative humidity94 %
Density altitude189 ft. (57 m)
Remarks Fully automated report
Automated weather observing station with precipitation discriminator
Flight conditions Marginal Visual Meteorological Conditions
Raw dataKHAF 220515Z AUTO 15005KT 4SM BR BKN018 15/14 A2995 RMK AO2
An error has occurred. This application may no longer respond until reloaded. Reload 🗙